Time;durP1;ratioP1;P1;durP2;ratioP2;P2;SDS_P1;SDS_P2;PMS_P1;PMS_P2;Temp;Humidity;BMP_temperature;BMP_pressure;BME280_temperature;BME280_humidity;BME280_pressure;Samples;Min_cycle;Max_cycle;Signal;HPM_P1;HPM_P2
2021/10/24 00:00:45;;;;;;;17.20;7.10;;;;;;;3.47;71.90;99890.38;5081872;28;20036;-80
2021/10/24 00:03:11;;;;;;;14.32;5.97;;;;;;;3.47;71.53;99893.06;5066837;28;20016;-81
2021/10/24 00:05:36;;;;;;;15.50;6.60;;;;;;;3.44;71.11;99896.25;5091049;28;20028;-81
2021/10/24 00:08:02;;;;;;;13.57;6.03;;;;;;;3.45;71.40;99891.63;5092171;28;20020;-81
2021/10/24 00:10:28;;;;;;;13.65;6.07;;;;;;;3.44;71.38;99901.66;5085805;28;20028;-80
2021/10/24 00:12:54;;;;;;;20.27;7.72;;;;;;;3.46;72.16;99902.28;5083756;28;20020;-79
2021/10/24 00:15:19;;;;;;;15.95;7.38;;;;;;;3.45;71.30;99906.03;5085470;28;20030;-80
2021/10/24 00:17:45;;;;;;;17.77;7.43;;;;;;;3.43;71.96;99900.00;5077860;28;20055;-81
2021/10/24 00:20:10;;;;;;;24.92;9.07;;;;;;;3.41;72.10;99904.81;5064833;28;20020;-80
2021/10/24 00:22:36;;;;;;;19.83;8.93;;;;;;;3.39;71.72;99912.31;5088170;28;20043;-80
2021/10/24 00:25:02;;;;;;;16.05;7.70;;;;;;;3.35;71.55;99906.47;5091847;28;20019;-81
2021/10/24 00:27:27;;;;;;;18.33;8.10;;;;;;;3.33;71.52;99911.28;5087467;28;20389;-81
2021/10/24 00:29:53;;;;;;;20.63;7.45;;;;;;;3.31;71.87;99913.38;5093260;28;20024;-81
2021/10/24 00:32:18;;;;;;;17.40;8.30;;;;;;;3.30;71.28;99910.88;5071271;28;20383;-82
2021/10/24 00:34:43;;;;;;;17.15;7.82;;;;;;;3.26;71.15;99908.59;5086520;28;20055;-81
2021/10/24 00:37:09;;;;;;;15.52;7.72;;;;;;;3.22;71.35;99903.81;5096866;28;20108;-82
2021/10/24 00:39:35;;;;;;;19.00;8.00;;;;;;;3.18;71.51;99889.84;5108604;28;20053;-80
2021/10/24 00:42:01;;;;;;;19.90;8.10;;;;;;;3.13;71.28;99897.75;5088814;28;20433;-81
2021/10/24 00:44:29;;;;;;;17.90;7.78;;;;;;;3.09;71.49;99899.22;5091001;28;20577;-81
2021/10/24 00:46:57;;;;;;;23.38;9.35;;;;;;;3.04;71.75;99896.34;5087873;28;20028;-80
2021/10/24 00:49:23;;;;;;;18.23;8.75;;;;;;;2.99;71.43;99899.66;5109424;28;20028;-81
2021/10/24 00:51:49;;;;;;;20.90;9.38;;;;;;;2.95;71.12;99909.25;5077528;28;20111;-80
2021/10/24 00:54:18;;;;;;;19.25;8.65;;;;;;;2.92;71.26;99910.53;5090503;28;20043;-81
2021/10/24 00:56:44;;;;;;;21.45;8.35;;;;;;;2.89;71.11;99916.38;5089812;28;20111;-81
2021/10/24 00:59:11;;;;;;;18.70;8.07;;;;;;;2.85;70.85;99915.13;5087898;28;20350;-80
2021/10/24 01:01:37;;;;;;;20.35;8.15;;;;;;;2.81;70.99;99917.44;5091901;28;20085;-81
2021/10/24 01:04:04;;;;;;;17.08;7.82;;;;;;;2.79;71.52;99907.81;5089498;28;20055;-81
2021/10/24 01:06:31;;;;;;;15.70;7.03;;;;;;;2.77;70.96;99899.91;5089866;28;20081;-81
2021/10/24 01:08:57;;;;;;;17.15;7.53;;;;;;;2.74;71.40;99899.47;5090448;28;20508;-81
2021/10/24 01:11:24;;;;;;;17.50;8.30;;;;;;;2.71;71.39;99903.47;5088289;28;20111;-80
2021/10/24 01:13:50;;;;;;;24.73;8.35;;;;;;;2.68;71.60;99910.09;5088006;28;20047;-80
2021/10/24 01:16:17;;;;;;;15.65;7.28;;;;;;;2.66;71.68;99914.91;5105550;28;20036;-80
2021/10/24 01:18:44;;;;;;;16.52;7.18;;;;;;;2.65;71.22;99915.94;5098903;28;20059;-80
2021/10/24 01:21:10;;;;;;;14.57;7.03;;;;;;;2.66;71.68;99919.50;5088445;28;20036;-81
2021/10/24 01:23:36;;;;;;;16.55;7.45;;;;;;;2.65;71.87;99913.22;5090366;28;20028;-80
2021/10/24 01:26:02;;;;;;;18.23;7.50;;;;;;;2.64;71.89;99918.88;5083732;28;20039;-80
2021/10/24 01:28:27;;;;;;;19.00;7.40;;;;;;;2.62;71.76;99913.69;5089266;28;20613;-80
2021/10/24 01:30:54;;;;;;;19.25;7.55;;;;;;;2.61;71.52;99922.00;5094190;28;20031;-80
2021/10/24 01:33:21;;;;;;;16.20;7.07;;;;;;;2.61;71.70;99922.00;5067402;28;20069;-80
2021/10/24 01:36:01;;;;;;;18.92;6.85;;;;;;;2.62;71.82;99927.22;5086728;28;20028;-80
2021/10/24 01:38:27;;;;;;;;;;;;;;;2.66;72.01;99928.44;5096261;28;20021;-80
2021/10/24 01:40:54;;;;;;;14.60;6.80;;;;;;;2.66;72.08;99930.34;5088433;28;19916;-81
2021/10/24 01:43:20;;;;;;;16.30;6.78;;;;;;;2.68;72.00;99937.19;5091626;28;20083;-80
2021/10/24 01:45:46;;;;;;;18.77;7.38;;;;;;;2.68;71.96;99933.66;5088449;28;20020;-80
2021/10/24 01:48:13;;;;;;;19.63;6.97;;;;;;;2.69;71.63;99927.22;5094799;28;20038;-80
2021/10/24 01:50:39;;;;;;;15.48;7.18;;;;;;;2.70;71.93;99926.16;5089563;28;20028;-82
2021/10/24 01:53:05;;;;;;;15.15;7.22;;;;;;;2.69;71.26;99938.03;5090633;28;20119;-81
2021/10/24 01:55:31;;;;;;;23.65;8.85;;;;;;;2.65;71.37;99937.59;5091068;28;20028;-81
2021/10/24 01:57:57;;;;;;;17.75;8.70;;;;;;;2.66;71.53;99927.63;5094376;28;20039;-82
2021/10/24 02:00:24;;;;;;;19.00;8.98;;;;;;;2.62;70.91;99929.94;5093104;28;20028;-82
2021/10/24 02:02:50;;;;;;;19.23;9.38;;;;;;;2.56;70.66;99932.63;5091390;28;20055;-81
2021/10/24 02:05:16;;;;;;;24.13;10.98;;;;;;;2.52;70.70;99933.03;5093529;28;20020;-81
2021/10/24 02:07:41;;;;;;;24.83;9.50;;;;;;;2.52;70.89;99937.63;5090546;28;20039;-81
2021/10/24 02:10:10;;;;;;;22.27;8.73;;;;;;;2.47;70.76;99945.53;5090373;28;20051;-81
2021/10/24 02:12:36;;;;;;;14.50;7.78;;;;;;;2.44;71.21;99938.66;5089946;28;20035;-81
2021/10/24 02:15:04;;;;;;;17.42;8.60;;;;;;;2.45;70.85;99934.06;5093797;28;20035;-81
2021/10/24 02:17:30;;;;;;;16.00;7.30;;;;;;;2.48;70.73;99936.38;5071680;28;20040;-82
2021/10/24 02:19:55;;;;;;;15.70;7.68;;;;;;;2.46;71.45;99933.84;5088391;28;20024;-88
2021/10/24 02:22:21;;;;;;;12.65;6.25;;;;;;;2.47;70.83;99943.63;5089999;28;20039;-83
2021/10/24 02:24:46;;;;;;;15.43;6.03;;;;;;;2.46;71.99;99933.84;5089323;28;20036;-80
2021/10/24 02:27:11;;;;;;;17.67;7.32;;;;;;;2.44;70.81;99938.66;5091453;28;20485;-82
2021/10/24 02:29:37;;;;;;;17.77;6.78;;;;;;;2.45;70.96;99943.00;5096549;28;20024;-81
2021/10/24 02:32:03;;;;;;;18.98;7.63;;;;;;;2.48;71.13;99931.75;5105012;28;20031;-82
2021/10/24 02:34:29;;;;;;;14.93;6.47;;;;;;;2.50;70.85;99920.75;5094032;28;20473;-82
2021/10/24 02:36:54;;;;;;;15.27;6.80;;;;;;;2.49;70.80;99919.88;5094025;28;20078;-82
2021/10/24 02:39:20;;;;;;;16.10;7.18;;;;;;;2.48;71.50;99925.53;5090154;28;20056;-82
2021/10/24 02:41:45;;;;;;;15.57;8.02;;;;;;;2.48;71.02;99928.25;5090970;28;20115;-83
2021/10/24 02:44:13;;;;;;;16.55;7.78;;;;;;;2.45;70.92;99925.94;5091089;28;20392;-83
2021/10/24 02:46:39;;;;;;;20.42;7.65;;;;;;;2.47;70.79;99932.81;5098561;28;20503;-84
2021/10/24 02:49:06;;;;;;;16.48;7.10;;;;;;;2.46;71.04;99943.84;5100559;28;20020;-85
2021/10/24 02:51:31;;;;;;;16.45;7.43;;;;;;;2.46;70.60;99935.72;5091664;28;20077;-83
2021/10/24 02:53:57;;;;;;;18.65;8.70;;;;;;;2.42;70.95;99946.16;5090054;28;20028;-83
2021/10/24 02:56:23;;;;;;;15.95;8.55;;;;;;;2.40;70.43;99941.97;5074345;28;20074;-84
2021/10/24 02:58:48;;;;;;;16.08;7.93;;;;;;;2.35;70.55;99950.72;5091027;28;20512;-83
2021/10/24 03:01:14;;;;;;;18.23;9.02;;;;;;;2.25;70.81;99945.69;5098631;28;20490;-84
2021/10/24 03:03:39;;;;;;;21.75;10.70;;;;;;;2.18;70.02;99936.72;5092738;28;20111;-84
2021/10/24 03:06:05;;;;;;;22.35;11.38;;;;;;;2.16;70.16;99933.41;5093878;28;20043;-84
2021/10/24 03:08:30;;;;;;;22.52;12.13;;;;;;;2.12;70.37;99929.44;5091599;28;20056;-84
2021/10/24 03:10:55;;;;;;;27.20;12.88;;;;;;;2.12;70.47;99941.06;5106771;28;20049;-85
2021/10/24 03:13:21;;;;;;;24.42;11.55;;;;;;;2.13;70.20;99950.03;5112816;28;20023;-80
2021/10/24 03:15:46;;;;;;;21.20;12.18;;;;;;;2.08;70.16;99948.78;5087229;28;20068;-82
2021/10/24 03:18:12;;;;;;;21.00;12.43;;;;;;;2.08;71.01;99951.47;5092579;28;20163;-81
2021/10/24 03:20:38;;;;;;;20.92;11.55;;;;;;;2.07;70.84;99952.53;5092264;28;20039;-82
2021/10/24 03:23:03;;;;;;;20.52;10.13;;;;;;;2.05;70.64;99949.19;5091867;28;20472;-81
2021/10/24 03:25:28;;;;;;;20.92;11.00;;;;;;;2.02;70.33;99946.06;5098179;28;20044;-82
2021/10/24 03:27:54;;;;;;;18.67;9.95;;;;;;;2.02;70.88;99946.88;5102582;28;20042;-81
2021/10/24 03:30:19;;;;;;;22.10;11.77;;;;;;;2.00;70.08;99951.66;5095709;28;20035;-81
2021/10/24 03:32:45;;;;;;;18.17;9.48;;;;;;;1.96;70.81;99955.00;5084479;28;20032;-80
2021/10/24 03:35:10;;;;;;;21.70;11.30;;;;;;;1.90;70.25;99951.19;5090226;28;20032;-81
2021/10/24 03:37:36;;;;;;;19.25;9.82;;;;;;;1.91;71.04;99963.69;5088395;28;20032;-81
2021/10/24 03:40:02;;;;;;;21.83;10.63;;;;;;;1.91;70.33;99963.69;5103081;28;20038;-81
2021/10/24 03:42:27;;;;;;;24.50;10.98;;;;;;;1.89;70.85;99968.47;5105302;28;20031;-82
2021/10/24 03:44:53;;;;;;;17.23;10.43;;;;;;;1.87;70.40;99963.28;5102640;28;20032;-81
2021/10/24 03:47:20;;;;;;;18.92;9.93;;;;;;;1.84;70.26;99969.09;5079365;28;20523;-81
2021/10/24 03:49:45;;;;;;;16.77;9.68;;;;;;;1.84;70.57;99973.66;5098261;28;20035;-81
2021/10/24 03:52:11;;;;;;;23.42;11.55;;;;;;;1.84;70.89;99968.22;5083946;28;20020;-82
2021/10/24 03:54:36;;;;;;;20.15;10.48;;;;;;;1.83;70.84;99975.53;5068474;28;20557;-82
2021/10/24 03:57:02;;;;;;;17.02;9.55;;;;;;;1.82;70.44;99983.88;5090834;28;20024;-83
2021/10/24 03:59:27;;;;;;;15.07;8.40;;;;;;;1.75;70.80;99981.09;5089889;28;20032;-83
2021/10/24 04:01:52;;;;;;;20.80;8.57;;;;;;;1.73;71.00;99973.22;5090798;28;20030;-82
2021/10/24 04:04:18;;;;;;;16.48;8.45;;;;;;;1.73;70.98;99984.03;5092206;28;20070;-82
2021/10/24 04:06:43;;;;;;;14.75;7.13;;;;;;;1.73;70.65;99978.63;5088889;28;20028;-83
2021/10/24 04:09:09;;;;;;;15.85;8.05;;;;;;;1.74;70.50;99979.44;5083109;28;20032;-82
2021/10/24 04:11:36;;;;;;;15.02;6.57;;;;;;;1.75;71.36;99976.53;5087369;28;20071;-84
2021/10/24 04:14:01;;;;;;;14.18;6.15;;;;;;;1.78;70.73;99978.84;5083853;28;20530;-82
2021/10/24 04:16:27;;;;;;;12.73;6.80;;;;;;;1.82;71.05;99975.75;5077383;28;20024;-83
2021/10/24 04:18:52;;;;;;;12.75;6.22;;;;;;;1.86;71.61;99977.00;5089348;28;20053;-82
2021/10/24 04:21:17;;;;;;;12.25;6.72;;;;;;;1.87;72.00;99974.09;5083538;28;20036;-83
2021/10/24 04:23:43;;;;;;;15.50;6.63;;;;;;;1.88;72.19;99973.06;5080839;28;20123;-82
2021/10/24 04:26:08;;;;;;;14.63;7.18;;;;;;;1.88;72.18;99970.34;5083899;28;20058;-83
2021/10/24 04:28:34;;;;;;;17.42;7.15;;;;;;;1.91;71.93;99972.66;5086547;28;20028;-83
2021/10/24 04:30:59;;;;;;;13.63;6.72;;;;;;;1.93;72.39;99978.69;5085809;28;20036;-81
2021/10/24 04:33:25;;;;;;;17.58;7.13;;;;;;;1.96;72.00;99977.44;5087412;28;20108;-82
2021/10/24 04:35:50;;;;;;;15.00;6.95;;;;;;;1.98;72.42;99975.38;5087743;28;20031;-82
2021/10/24 04:38:16;;;;;;;17.48;7.22;;;;;;;2.00;72.40;99970.59;5089328;28;20036;-83
2021/10/24 04:40:41;;;;;;;17.02;7.25;;;;;;;2.02;71.96;99973.94;5082793;28;20024;-82
2021/10/24 04:43:07;;;;;;;12.75;6.07;;;;;;;2.02;72.14;99967.72;5090184;28;20030;-83
2021/10/24 04:45:35;;;;;;;13.05;6.45;;;;;;;2.01;72.34;99974.97;5087833;28;20024;-81
2021/10/24 04:48:01;;;;;;;14.82;6.93;;;;;;;2.03;71.85;99982.91;5082443;28;20052;-82
2021/10/24 04:50:27;;;;;;;12.15;6.40;;;;;;;2.05;71.99;99986.22;5083090;28;20503;-82
2021/10/24 04:52:52;;;;;;;10.35;5.53;;;;;;;2.04;71.76;99989.97;5083372;28;20051;-82
2021/10/24 04:55:17;;;;;;;13.20;5.82;;;;;;;2.03;71.81;99999.16;5091656;28;20027;-82
2021/10/24 04:57:44;;;;;;;13.10;7.68;;;;;;;2.04;71.99;99998.09;5086879;28;20095;-81
2021/10/24 05:00:10;;;;;;;15.15;7.70;;;;;;;2.08;72.30;99999.34;5063757;28;20114;-82
2021/10/24 05:02:36;;;;;;;16.98;7.82;;;;;;;2.10;72.52;99996.47;5085467;28;20081;-82
2021/10/24 05:05:04;;;;;;;12.43;7.38;;;;;;;2.13;72.57;99998.75;5092088;28;20031;-83
2021/10/24 05:07:29;;;;;;;17.83;8.05;;;;;;;2.17;72.72;100000.03;5083793;28;20027;-83
2021/10/24 05:09:55;;;;;;;14.63;7.40;;;;;;;2.18;72.45;100007.13;5068626;28;20558;-82
2021/10/24 05:12:21;;;;;;;19.42;8.93;;;;;;;2.13;72.25;100015.81;5070451;28;20028;-81
2021/10/24 05:14:46;;;;;;;19.70;9.18;;;;;;;2.04;71.71;100019.72;5088055;28;20055;-81
2021/10/24 05:17:13;;;;;;;20.17;9.82;;;;;;;2.00;71.25;100023.91;5087733;28;20029;-81
2021/10/24 05:19:38;;;;;;;24.80;13.13;;;;;;;1.93;71.83;100021.16;5085185;28;20039;-82
2021/10/24 05:22:04;;;;;;;23.77;12.48;;;;;;;1.86;71.24;100014.88;5095354;28;20028;-82
2021/10/24 05:24:29;;;;;;;29.45;14.30;;;;;;;1.81;71.12;100015.47;5092655;28;20568;-81
2021/10/24 05:26:55;;;;;;;27.25;14.85;;;;;;;1.75;71.72;100021.69;5095364;28;20040;-81
2021/10/24 05:29:21;;;;;;;29.30;15.60;;;;;;;1.67;71.31;100024.53;5094387;28;20044;-81
2021/10/24 05:31:46;;;;;;;31.65;16.85;;;;;;;1.62;71.20;100023.28;5086442;28;20103;-81
2021/10/24 05:34:11;;;;;;;39.40;20.20;;;;;;;1.61;71.52;100024.31;5067547;28;20072;-81
2021/10/24 05:36:37;;;;;;;28.08;15.77;;;;;;;1.59;71.30;100021.00;5087356;28;20480;-81
2021/10/24 05:39:02;;;;;;;35.08;14.15;;;;;;;1.55;71.73;100021.56;5090490;28;20527;-82
2021/10/24 05:41:28;;;;;;;28.20;13.55;;;;;;;1.52;71.62;100030.91;5087057;28;20061;-81
2021/10/24 05:43:54;;;;;;;25.00;12.77;;;;;;;1.52;71.62;100032.78;5097884;28;20024;-82
2021/10/24 05:46:20;;;;;;;20.83;12.75;;;;;;;1.51;71.84;100034.66;5095778;28;20051;-81
2021/10/24 05:48:46;;;;;;;24.13;12.95;;;;;;;1.50;72.08;100038.41;5096313;28;20148;-83
2021/10/24 05:51:11;;;;;;;19.60;11.77;;;;;;;1.49;71.84;100042.94;5070439;28;20113;-82
2021/10/24 05:53:37;;;;;;;27.45;14.48;;;;;;;1.49;71.60;100042.94;5092415;28;20472;-82
2021/10/24 05:56:03;;;;;;;27.40;14.48;;;;;;;1.51;71.69;100040.06;5089711;28;20032;-81
2021/10/24 05:58:29;;;;;;;25.38;13.82;;;;;;;1.56;72.26;100045.72;5074340;28;20029;-82
2021/10/24 06:00:54;;;;;;;23.80;14.35;;;;;;;1.64;71.81;100050.13;5090473;28;20496;-81
2021/10/24 06:03:19;;;;;;;27.92;16.08;;;;;;;1.66;71.53;100055.31;5095719;28;20028;-76
2021/10/24 06:05:45;;;;;;;26.98;17.95;;;;;;;1.70;71.54;100054.75;5092540;28;20088;-77
2021/10/24 06:08:20;;;;;;;30.00;18.55;;;;;;;1.76;71.90;100059.38;5095307;28;20048;-76
2021/10/24 06:10:46;;;;;;;32.47;17.25;;;;;;;1.85;72.19;100054.63;5070217;28;20190;-77
2021/10/24 06:13:12;;;;;;;22.70;13.18;;;;;;;1.87;72.34;100062.53;5084094;28;20032;-77
2021/10/24 06:15:39;;;;;;;24.90;13.73;;;;;;;1.91;72.74;100061.09;5088875;28;20071;-77
2021/10/24 06:18:06;;;;;;;30.48;15.57;;;;;;;1.92;72.24;100066.31;5086179;28;20481;-77
2021/10/24 06:20:32;;;;;;;27.50;14.18;;;;;;;1.93;71.74;100059.88;5090654;28;20020;-77
2021/10/24 06:22:58;;;;;;;28.23;16.50;;;;;;;1.96;72.22;100058.63;5089818;28;20113;-76
2021/10/24 06:25:24;;;;;;;35.20;17.73;;;;;;;2.02;72.29;100070.53;5050097;28;20583;-77
2021/10/24 06:27:50;;;;;;;44.22;19.50;;;;;;;2.05;72.24;100065.56;5067616;28;20381;-77
2021/10/24 06:30:23;;;;;;;47.30;24.50;;;;;;;2.10;72.09;100067.66;5086410;28;20054;-78
2021/10/24 06:32:52;;;;;;;53.53;26.13;;;;;;;2.15;71.87;100070.59;5061722;28;20388;-77
2021/10/24 06:35:17;;;;;;;61.63;26.67;;;;;;;2.21;71.90;100077.09;5089417;28;20441;-78
2021/10/24 06:37:45;;;;;;;59.17;26.88;;;;;;;2.28;72.30;100077.94;5089559;28;20043;-77
2021/10/24 06:40:13;;;;;;;50.58;23.77;;;;;;;2.33;72.44;100080.06;5094475;28;20101;-79
2021/10/24 06:42:38;;;;;;;46.05;22.77;;;;;;;2.39;71.96;100076.53;5089180;28;20035;-78
2021/10/24 06:45:06;;;;;;;60.30;29.42;;;;;;;2.45;71.85;100075.72;5091988;28;20043;-77
2021/10/24 06:47:31;;;;;;;46.55;24.38;;;;;;;2.57;72.39;100075.13;5073446;28;20020;-78
2021/10/24 06:49:57;;;;;;;43.88;20.33;;;;;;;2.66;73.09;100077.44;5097173;28;20042;-78
2021/10/24 06:52:22;;;;;;;49.53;24.13;;;;;;;2.79;73.23;100083.94;5091303;28;20396;-78
2021/10/24 06:54:48;;;;;;;42.15;21.58;;;;;;;2.93;72.87;100087.50;5094870;28;20048;-78
2021/10/24 06:57:13;;;;;;;40.35;17.27;;;;;;;3.04;72.41;100084.19;5091906;28;20048;-77
2021/10/24 06:59:42;;;;;;;34.55;17.95;;;;;;;3.17;72.51;100090.69;5093130;28;20766;-78
2021/10/24 07:02:08;;;;;;;25.23;13.45;;;;;;;3.28;72.50;100093.59;5089018;28;20028;-78
2021/10/24 07:04:33;;;;;;;26.70;14.50;;;;;;;3.38;72.79;100100.50;5092052;28;20039;-77
2021/10/24 07:06:59;;;;;;;28.00;14.82;;;;;;;3.47;73.14;100095.69;5073597;28;20079;-79
2021/10/24 07:09:24;;;;;;;24.40;12.50;;;;;;;3.55;72.78;100099.03;5082747;28;20485;-78
2021/10/24 07:11:50;;;;;;;31.60;16.95;;;;;;;3.65;72.64;100105.91;5069199;28;20415;-78
2021/10/24 07:14:15;;;;;;;28.27;16.00;;;;;;;3.76;72.37;100105.28;5090908;28;20059;-78
2021/10/24 07:16:41;;;;;;;32.35;15.60;;;;;;;3.88;72.34;100098.16;5089917;28;20380;-77
2021/10/24 07:19:06;;;;;;;30.33;16.73;;;;;;;4.00;73.19;100095.63;5077470;28;20492;-76
2021/10/24 07:21:32;;;;;;;32.60;16.73;;;;;;;4.09;72.55;100089.94;5086661;28;20024;-77
2021/10/24 07:23:57;;;;;;;27.00;13.63;;;;;;;4.13;72.95;100092.03;5097263;28;20082;-78
2021/10/24 07:26:22;;;;;;;30.63;15.00;;;;;;;4.20;72.62;100102.88;5090553;28;20411;-80
2021/10/24 07:28:48;;;;;;;30.65;15.95;;;;;;;4.25;72.77;100100.34;5092328;28;20020;-80
2021/10/24 07:31:13;;;;;;;31.02;16.70;;;;;;;4.35;72.81;100108.06;5092774;28;20028;-80
2021/10/24 07:33:39;;;;;;;32.50;16.40;;;;;;;4.47;72.63;100111.78;5092477;28;20114;-80
2021/10/24 07:36:04;;;;;;;57.75;27.45;;;;;;;4.60;72.38;100112.78;5087404;28;20392;-80
2021/10/24 07:38:30;;;;;;;55.25;26.15;;;;;;;4.69;72.20;100113.34;5088360;28;20115;-80
2021/10/24 07:40:55;;;;;;;38.10;19.38;;;;;;;4.74;72.51;100122.50;5092387;28;20024;-80
2021/10/24 07:43:22;;;;;;;29.15;15.15;;;;;;;4.79;71.96;100124.59;5091557;28;20028;-80
2021/10/24 07:45:48;;;;;;;26.48;13.35;;;;;;;4.85;72.61;100125.59;5091540;28;20073;-81
2021/10/24 07:48:14;;;;;;;16.25;7.72;;;;;;;4.92;71.90;100120.97;5087957;28;20028;-81
2021/10/24 07:50:40;;;;;;;15.95;6.90;;;;;;;5.00;72.54;100128.88;5090363;28;20070;-80
2021/10/24 07:53:05;;;;;;;15.25;6.30;;;;;;;5.08;72.44;100127.78;5090755;28;20679;-81
2021/10/24 07:55:32;;;;;;;11.73;5.85;;;;;;;5.16;72.27;100126.69;5092217;28;20458;-82
2021/10/24 07:57:57;;;;;;;15.98;6.68;;;;;;;5.23;72.37;100127.47;5094981;28;20032;-81
2021/10/24 08:00:23;;;;;;;13.02;6.88;;;;;;;5.29;72.23;100128.50;5086490;28;20028;-80
2021/10/24 08:02:50;;;;;;;14.07;5.35;;;;;;;5.36;72.16;100129.25;5104337;28;20117;-81
2021/10/24 08:05:16;;;;;;;13.32;6.13;;;;;;;5.38;72.29;100140.75;5109209;28;20039;-81
2021/10/24 08:07:43;;;;;;;10.43;4.63;;;;;;;5.44;72.58;100136.34;5082466;28;20031;-79
2021/10/24 08:10:09;;;;;;;14.27;5.50;;;;;;;5.46;72.04;100131.50;5089228;28;20118;-80
2021/10/24 08:12:37;;;;;;;15.00;7.40;;;;;;;5.55;72.22;100124.72;5099929;28;20495;-80
2021/10/24 08:15:03;;;;;;;20.05;8.82;;;;;;;5.64;71.93;100128.81;5107481;28;20027;-79
2021/10/24 08:17:29;;;;;;;43.92;21.45;;;;;;;5.75;72.39;100129.16;5092086;28;20106;-76
2021/10/24 08:19:54;;;;;;;41.50;21.48;;;;;;;5.85;72.10;100139.53;5105673;28;20426;-75
2021/10/24 08:22:20;;;;;;;52.25;25.90;;;;;;;5.90;72.10;100137.84;5111415;28;20020;-77
2021/10/24 08:24:46;;;;;;;54.50;26.25;;;;;;;6.00;72.21;100139.19;5109666;28;20037;-78
2021/10/24 08:27:12;;;;;;;50.88;23.90;;;;;;;6.06;72.18;100143.78;5070190;28;20067;-78
2021/10/24 08:29:39;;;;;;;45.80;22.80;;;;;;;6.11;71.76;100149.38;5084467;28;20054;-78
2021/10/24 08:32:09;;;;;;;45.08;21.13;;;;;;;6.18;71.46;100143.84;5089100;28;20028;-77
2021/10/24 08:34:35;;;;;;;39.17;20.25;;;;;;;6.22;71.40;100143.19;5082422;28;20046;-77
2021/10/24 08:37:00;;;;;;;42.63;20.58;;;;;;;6.26;71.32;100146.28;5112387;28;20027;-79
2021/10/24 08:39:26;;;;;;;43.78;24.05;;;;;;;6.32;71.03;100150.00;5111697;28;20033;-78
2021/10/24 08:41:52;;;;;;;42.80;18.35;;;;;;;6.34;70.75;100150.59;5112322;28;20023;-78
2021/10/24 08:44:18;;;;;;;39.63;18.25;;;;;;;6.33;70.85;100152.50;5097191;28;20104;-78
2021/10/24 08:46:45;;;;;;;37.83;17.25;;;;;;;6.31;70.88;100156.53;5087333;28;20024;-79
2021/10/24 08:49:10;;;;;;;39.90;19.73;;;;;;;6.29;70.48;100148.56;5095353;28;20038;-79
2021/10/24 08:51:36;;;;;;;31.38;14.88;;;;;;;6.31;70.71;100151.09;5098968;28;20028;-79
2021/10/24 08:54:03;;;;;;;36.53;17.73;;;;;;;6.34;70.88;100145.16;5088563;28;20029;-79
2021/10/24 08:56:30;;;;;;;32.72;17.20;;;;;;;6.43;70.95;100148.44;5084789;28;20035;-76
2021/10/24 08:58:59;;;;;;;24.85;12.68;;;;;;;6.53;70.66;100155.00;5094748;28;20042;-77
2021/10/24 09:01:25;;;;;;;35.67;15.63;;;;;;;6.55;70.61;100157.50;5093192;28;20507;-77
2021/10/24 09:04:02;;;;;;;33.55;15.68;;;;;;;6.57;70.44;100157.28;5091428;28;20273;-76
2021/10/24 09:06:48;;;;;;;28.38;14.82;;;;;;;6.60;70.44;100152.19;5097417;28;20058;-71
2021/10/24 09:09:16;;;;;;;35.00;16.83;;;;;;;6.65;70.51;100152.34;5099594;28;20028;-70
2021/10/24 09:12:00;;;;;;;31.35;14.93;;;;;;;6.67;70.33;100160.31;5088860;28;20048;-69
2021/10/24 09:14:35;;;;;;;41.95;19.08;;;;;;;6.76;69.93;100164.38;5085826;28;20039;-70
2021/10/24 09:17:00;;;;;;;36.85;18.10;;;;;;;6.90;70.02;100164.22;5086939;28;20020;-70
2021/10/24 09:19:31;;;;;;;37.10;17.60;;;;;;;7.02;70.58;100158.81;5085038;28;20024;-69
2021/10/24 09:22:36;;;;;;;41.85;18.80;;;;;;;7.12;70.00;100164.53;5081883;28;20028;-69
2021/10/24 09:25:10;;;;;;;42.15;19.83;;;;;;;7.36;70.15;100170.06;5089585;28;20036;-69
2021/10/24 09:27:42;;;;;;;48.92;23.05;;;;;;;7.63;69.84;100156.84;5083467;28;20048;-68
2021/10/24 09:30:12;;;;;;;49.13;22.25;;;;;;;7.81;69.86;100155.91;5088281;28;20142;-69
2021/10/24 09:32:56;;;;;;;46.85;21.25;;;;;;;8.03;69.11;100158.09;5091110;28;20016;-69
2021/10/24 09:35:23;;;;;;;46.80;22.63;;;;;;;8.20;69.04;100177.34;5085534;28;20059;-69
2021/10/24 09:37:49;;;;;;;52.45;23.10;;;;;;;8.19;67.90;100172.94;5079546;28;20107;-69
2021/10/24 09:40:18;;;;;;;45.50;22.58;;;;;;;8.16;67.85;100168.75;5084763;28;20102;-69
2021/10/24 09:42:44;;;;;;;54.13;23.95;;;;;;;8.30;67.61;100161.16;5081989;28;20472;-69
2021/10/24 09:45:16;;;;;;;45.47;20.48;;;;;;;8.51;68.34;100172.56;5090624;28;20248;-70
2021/10/24 09:47:45;;;;;;;45.25;19.92;;;;;;;8.69;67.65;100163.38;5084355;28;20016;-69
2021/10/24 09:50:32;;;;;;;46.30;23.58;;;;;;;8.82;67.64;100154.06;5089823;28;20020;-69
2021/10/24 09:53:16;;;;;;;47.15;21.92;;;;;;;8.98;67.78;100143.44;5105064;28;20508;-70
2021/10/24 09:55:44;;;;;;;42.38;19.48;;;;;;;9.07;66.28;100147.44;5094753;28;20124;-70
2021/10/24 09:58:11;;;;;;;41.55;18.75;;;;;;;9.16;66.58;100145.97;5081370;28;20033;-69
2021/10/24 10:00:37;;;;;;;38.95;18.45;;;;;;;9.34;66.87;100142.19;5087503;28;20031;-70
2021/10/24 10:03:04;;;;;;;35.08;15.50;;;;;;;9.46;66.03;100144.00;5095236;28;20069;-69
2021/10/24 10:05:31;;;;;;;42.40;18.35;;;;;;;9.56;65.78;100149.69;5104082;28;20023;-69
2021/10/24 10:07:58;;;;;;;34.50;15.43;;;;;;;9.61;65.55;100141.53;5103866;28;20379;-69
2021/10/24 10:10:25;;;;;;;26.17;12.50;;;;;;;9.67;65.69;100143.28;5097533;28;20052;-68
2021/10/24 10:12:51;;;;;;;32.47;13.45;;;;;;;9.78;64.82;100138.00;5092890;28;20529;-69
2021/10/24 10:15:20;;;;;;;36.17;13.98;;;;;;;9.92;65.34;100136.53;5102301;28;20028;-68
2021/10/24 10:17:55;;;;;;;32.35;13.80;;;;;;;10.04;65.57;100143.84;5091380;28;20084;-69
2021/10/24 10:20:26;;;;;;;33.58;14.63;;;;;;;10.05;64.92;100143.59;5089743;28;20112;-69
2021/10/24 10:23:09;;;;;;;28.73;13.90;;;;;;;10.09;64.81;100138.44;5092073;28;20032;-68
2021/10/24 10:25:37;;;;;;;26.50;12.40;;;;;;;10.13;63.52;100131.38;5092961;28;20035;-68
2021/10/24 10:28:03;;;;;;;24.30;10.95;;;;;;;10.25;63.61;100118.38;5097026;28;20382;-68
2021/10/24 10:30:45;;;;;;;21.80;9.82;;;;;;;10.36;63.81;100124.00;5096621;28;20034;-67
2021/10/24 10:33:32;;;;;;;30.13;13.07;;;;;;;10.49;63.92;100120.09;5087628;28;20028;-67
2021/10/24 10:36:00;;;;;;;18.98;7.70;;;;;;;10.62;62.58;100122.47;5068362;28;20432;-68
2021/10/24 10:38:41;;;;;;;15.88;7.88;;;;;;;10.61;62.19;100114.47;5083231;28;20415;-68
2021/10/24 10:41:11;;;;;;;22.45;9.88;;;;;;;10.55;62.49;100108.09;5086719;28;20104;-68
2021/10/24 10:43:37;;;;;;;16.08;7.65;;;;;;;10.55;62.35;100116.31;5089831;28;20028;-69
2021/10/24 10:46:05;;;;;;;24.90;10.38;;;;;;;10.58;61.55;100115.81;5083362;28;20020;-70
2021/10/24 10:48:44;;;;;;;17.73;6.93;;;;;;;10.64;59.56;100108.47;5087135;28;20472;-69
2021/10/24 10:51:18;;;;;;;25.92;10.15;;;;;;;10.54;60.96;100109.19;5089430;28;20049;-69
2021/10/24 10:53:47;;;;;;;17.92;7.70;;;;;;;10.43;61.04;100105.47;5089495;28;20023;-69
2021/10/24 10:56:12;;;;;;;18.48;7.72;;;;;;;10.35;60.52;100117.72;5090927;28;20024;-69
2021/10/24 10:58:41;;;;;;;20.75;8.52;;;;;;;10.30;60.49;100114.88;5096673;28;20077;-69
2021/10/24 11:01:18;;;;;;;18.20;7.57;;;;;;;10.24;60.75;100105.75;5109243;28;20422;-69
2021/10/24 11:03:49;;;;;;;20.38;8.23;;;;;;;10.28;60.08;100106.91;5089407;28;20051;-68
2021/10/24 11:06:38;;;;;;;19.95;8.82;;;;;;;10.33;60.26;100102.56;5090685;28;20104;-68
2021/10/24 11:09:07;;;;;;;17.98;8.32;;;;;;;10.32;60.46;100099.00;5074640;28;20036;-69
2021/10/24 11:11:43;;;;;;;20.93;8.57;;;;;;;10.36;59.34;100102.91;5098577;28;20107;-69
2021/10/24 11:14:12;;;;;;;15.27;6.10;;;;;;;10.39;59.32;100096.91;5112184;28;20368;-69
2021/10/24 11:16:53;;;;;;;14.43;6.38;;;;;;;10.39;58.76;100096.91;5100375;28;20113;-69
2021/10/24 11:19:36;;;;;;;13.23;5.72;;;;;;;10.48;59.70;100089.09;5104854;28;20490;-69
2021/10/24 11:22:02;;;;;;;17.73;6.47;;;;;;;10.58;58.66;100082.91;5096003;28;20412;-69
2021/10/24 11:24:49;;;;;;;36.67;12.25;;;;;;;10.69;59.73;100070.97;5094779;28;20029;-69